sensor_id;sensor_type;location;lat;lon;timestamp;P1;durP1;ratioP1;P2;durP2;ratioP2
6185;SDS011;3126;52.738;8.316;2023-07-20T00:03:51;3.17;;;2.63;;
6185;SDS011;3126;52.738;8.316;2023-07-20T00:08:55;2.50;;;2.30;;
6185;SDS011;3126;52.738;8.316;2023-07-20T00:13:56;2.83;;;2.63;;
6185;SDS011;3126;52.738;8.316;2023-07-20T00:18:57;4.90;;;2.42;;
6185;SDS011;3126;52.738;8.316;2023-07-20T00:23:58;3.22;;;2.83;;
6185;SDS011;3126;52.738;8.316;2023-07-20T00:28:59;3.17;;;2.97;;
6185;SDS011;3126;52.738;8.316;2023-07-20T00:34:00;3.00;;;2.80;;
6185;SDS011;3126;52.738;8.316;2023-07-20T00:39:01;4.43;;;3.03;;
6185;SDS011;3126;52.738;8.316;2023-07-20T00:44:02;3.40;;;3.08;;
6185;SDS011;3126;52.738;8.316;2023-07-20T00:49:03;4.50;;;3.20;;
6185;SDS011;3126;52.738;8.316;2023-07-20T00:54:06;3.53;;;3.22;;
6185;SDS011;3126;52.738;8.316;2023-07-20T00:59:08;4.60;;;3.55;;
6185;SDS011;3126;52.738;8.316;2023-07-20T01:04:09;3.30;;;3.08;;
6185;SDS011;3126;52.738;8.316;2023-07-20T01:14:11;5.10;;;3.05;;
6185;SDS011;3126;52.738;8.316;2023-07-20T01:19:13;5.07;;;3.47;;
6185;SDS011;3126;52.738;8.316;2023-07-20T01:30:18;3.80;;;3.50;;
6185;SDS011;3126;52.738;8.316;2023-07-20T01:34:58;4.63;;;3.63;;
6185;SDS011;3126;52.738;8.316;2023-07-20T01:40:00;4.50;;;3.97;;
6185;SDS011;3126;52.738;8.316;2023-07-20T01:45:01;6.53;;;4.75;;
6185;SDS011;3126;52.738;8.316;2023-07-20T01:50:02;5.82;;;4.90;;
6185;SDS011;3126;52.738;8.316;2023-07-20T01:55:04;5.93;;;4.50;;
6185;SDS011;3126;52.738;8.316;2023-07-20T02:00:14;5.97;;;5.38;;
6185;SDS011;3126;52.738;8.316;2023-07-20T02:05:15;5.18;;;4.68;;
6185;SDS011;3126;52.738;8.316;2023-07-20T02:10:16;5.40;;;4.90;;
6185;SDS011;3126;52.738;8.316;2023-07-20T02:15:17;4.90;;;4.43;;
6185;SDS011;3126;52.738;8.316;2023-07-20T02:20:19;5.78;;;5.07;;
6185;SDS011;3126;52.738;8.316;2023-07-20T02:25:20;6.53;;;5.93;;
6185;SDS011;3126;52.738;8.316;2023-07-20T02:30:21;7.45;;;6.22;;
6185;SDS011;3126;52.738;8.316;2023-07-20T02:35:22;7.85;;;6.55;;
6185;SDS011;3126;52.738;8.316;2023-07-20T02:40:23;6.05;;;5.30;;
6185;SDS011;3126;52.738;8.316;2023-07-20T02:45:24;7.35;;;6.65;;
6185;SDS011;3126;52.738;8.316;2023-07-20T02:50:25;8.02;;;5.90;;
6185;SDS011;3126;52.738;8.316;2023-07-20T02:55:26;7.10;;;6.15;;
6185;SDS011;3126;52.738;8.316;2023-07-20T03:00:27;7.10;;;6.40;;
6185;SDS011;3126;52.738;8.316;2023-07-20T03:05:29;6.65;;;6.00;;
6185;SDS011;3126;52.738;8.316;2023-07-20T03:10:30;6.55;;;5.78;;
6185;SDS011;3126;52.738;8.316;2023-07-20T03:15:31;6.15;;;5.55;;
6185;SDS011;3126;52.738;8.316;2023-07-20T03:20:32;5.80;;;5.28;;
6185;SDS011;3126;52.738;8.316;2023-07-20T03:25:33;6.20;;;5.60;;
6185;SDS011;3126;52.738;8.316;2023-07-20T03:30:34;7.18;;;5.85;;
6185;SDS011;3126;52.738;8.316;2023-07-20T03:35:35;6.03;;;5.32;;
6185;SDS011;3126;52.738;8.316;2023-07-20T03:40:36;6.95;;;5.82;;
6185;SDS011;3126;52.738;8.316;2023-07-20T03:45:37;6.07;;;5.38;;
6185;SDS011;3126;52.738;8.316;2023-07-20T03:50:38;6.10;;;5.07;;
6185;SDS011;3126;52.738;8.316;2023-07-20T03:55:39;8.38;;;6.07;;
6185;SDS011;3126;52.738;8.316;2023-07-20T04:00:59;8.02;;;5.43;;
6185;SDS011;3126;52.738;8.316;2023-07-20T04:06:00;8.45;;;5.07;;
6185;SDS011;3126;52.738;8.316;2023-07-20T04:11:01;9.07;;;5.38;;
6185;SDS011;3126;52.738;8.316;2023-07-20T04:16:02;7.25;;;5.72;;
6185;SDS011;3126;52.738;8.316;2023-07-20T04:21:03;7.72;;;5.65;;
6185;SDS011;3126;52.738;8.316;2023-07-20T04:26:04;6.00;;;5.38;;
6185;SDS011;3126;52.738;8.316;2023-07-20T04:31:10;7.88;;;5.30;;
6185;SDS011;3126;52.738;8.316;2023-07-20T04:36:12;5.97;;;5.07;;
6185;SDS011;3126;52.738;8.316;2023-07-20T04:41:16;5.43;;;4.93;;
6185;SDS011;3126;52.738;8.316;2023-07-20T04:46:17;6.28;;;5.00;;
6185;SDS011;3126;52.738;8.316;2023-07-20T04:51:19;6.57;;;5.47;;
6185;SDS011;3126;52.738;8.316;2023-07-20T04:56:22;5.70;;;5.10;;
6185;SDS011;3126;52.738;8.316;2023-07-20T05:01:23;6.57;;;5.82;;
6185;SDS011;3126;52.738;8.316;2023-07-20T05:06:24;8.65;;;6.47;;
6185;SDS011;3126;52.738;8.316;2023-07-20T05:11:26;7.63;;;6.63;;
6185;SDS011;3126;52.738;8.316;2023-07-20T05:16:26;7.72;;;6.65;;
6185;SDS011;3126;52.738;8.316;2023-07-20T05:21:28;9.57;;;7.25;;
6185;SDS011;3126;52.738;8.316;2023-07-20T05:26:29;7.88;;;6.88;;
6185;SDS011;3126;52.738;8.316;2023-07-20T05:31:30;9.30;;;6.57;;
6185;SDS011;3126;52.738;8.316;2023-07-20T05:36:31;8.98;;;8.07;;
6185;SDS011;3126;52.738;8.316;2023-07-20T05:41:32;7.00;;;6.30;;
6185;SDS011;3126;52.738;8.316;2023-07-20T05:46:33;6.85;;;6.13;;
6185;SDS011;3126;52.738;8.316;2023-07-20T05:51:34;7.10;;;5.57;;
6185;SDS011;3126;52.738;8.316;2023-07-20T05:56:36;5.55;;;5.00;;
6185;SDS011;3126;52.738;8.316;2023-07-20T06:01:37;6.47;;;5.40;;
6185;SDS011;3126;52.738;8.316;2023-07-20T06:06:38;6.53;;;4.70;;
6185;SDS011;3126;52.738;8.316;2023-07-20T06:11:39;4.47;;;4.07;;
6185;SDS011;3126;52.738;8.316;2023-07-20T06:16:41;4.32;;;3.92;;
6185;SDS011;3126;52.738;8.316;2023-07-20T06:21:42;5.65;;;3.90;;
6185;SDS011;3126;52.738;8.316;2023-07-20T06:26:43;2.67;;;2.47;;
6185;SDS011;3126;52.738;8.316;2023-07-20T06:31:44;3.83;;;2.15;;
6185;SDS011;3126;52.738;8.316;2023-07-20T06:36:45;3.08;;;2.08;;
6185;SDS011;3126;52.738;8.316;2023-07-20T06:41:46;2.80;;;1.98;;
6185;SDS011;3126;52.738;8.316;2023-07-20T06:46:47;1.30;;;1.20;;
6185;SDS011;3126;52.738;8.316;2023-07-20T06:51:48;2.25;;;1.02;;
6185;SDS011;3126;52.738;8.316;2023-07-20T06:56:49;1.58;;;1.10;;
6185;SDS011;3126;52.738;8.316;2023-07-20T07:01:50;1.55;;;1.20;;
6185;SDS011;3126;52.738;8.316;2023-07-20T07:06:51;3.40;;;1.13;;
6185;SDS011;3126;52.738;8.316;2023-07-20T07:11:52;2.15;;;1.20;;
6185;SDS011;3126;52.738;8.316;2023-07-20T07:16:53;2.78;;;1.02;;
6185;SDS011;3126;52.738;8.316;2023-07-20T07:21:54;0.63;;;0.63;;
6185;SDS011;3126;52.738;8.316;2023-07-20T07:26:55;1.98;;;0.70;;
6185;SDS011;3126;52.738;8.316;2023-07-20T07:31:56;2.22;;;1.08;;
6185;SDS011;3126;52.738;8.316;2023-07-20T07:36:57;2.50;;;1.00;;
6185;SDS011;3126;52.738;8.316;2023-07-20T07:41:58;1.23;;;1.05;;
6185;SDS011;3126;52.738;8.316;2023-07-20T07:47:01;2.42;;;1.20;;
6185;SDS011;3126;52.738;8.316;2023-07-20T07:52:03;1.33;;;1.10;;
6185;SDS011;3126;52.738;8.316;2023-07-20T07:57:04;1.75;;;0.98;;
6185;SDS011;3126;52.738;8.316;2023-07-20T08:02:05;0.70;;;0.70;;
6185;SDS011;3126;52.738;8.316;2023-07-20T08:07:07;1.38;;;1.13;;
6185;SDS011;3126;52.738;8.316;2023-07-20T08:12:08;1.40;;;1.00;;
6185;SDS011;3126;52.738;8.316;2023-07-20T08:17:09;2.60;;;1.00;;
6185;SDS011;3126;52.738;8.316;2023-07-20T08:22:10;0.77;;;0.77;;
6185;SDS011;3126;52.738;8.316;2023-07-20T08:27:12;1.20;;;1.10;;
6185;SDS011;3126;52.738;8.316;2023-07-20T08:32:13;0.60;;;0.57;;
6185;SDS011;3126;52.738;8.316;2023-07-20T08:37:14;1.65;;;0.80;;
6185;SDS011;3126;52.738;8.316;2023-07-20T08:42:15;1.23;;;0.80;;
6185;SDS011;3126;52.738;8.316;2023-07-20T08:47:17;2.58;;;0.98;;
6185;SDS011;3126;52.738;8.316;2023-07-20T08:52:19;1.58;;;0.80;;
6185;SDS011;3126;52.738;8.316;2023-07-20T08:57:20;0.68;;;0.63;;
6185;SDS011;3126;52.738;8.316;2023-07-20T09:02:21;1.00;;;0.70;;
6185;SDS011;3126;52.738;8.316;2023-07-20T09:07:25;0.70;;;0.70;;
6185;SDS011;3126;52.738;8.316;2023-07-20T09:12:26;2.58;;;0.95;;
6185;SDS011;3126;52.738;8.316;2023-07-20T09:17:27;2.38;;;0.63;;
6185;SDS011;3126;52.738;8.316;2023-07-20T09:22:31;1.60;;;0.80;;
6185;SDS011;3126;52.738;8.316;2023-07-20T09:27:35;0.98;;;0.80;;
6185;SDS011;3126;52.738;8.316;2023-07-20T09:32:40;1.10;;;0.80;;
6185;SDS011;3126;52.738;8.316;2023-07-20T09:37:57;0.70;;;0.70;;
6185;SDS011;3126;52.738;8.316;2023-07-20T09:42:59;2.05;;;0.73;;
6185;SDS011;3126;52.738;8.316;2023-07-20T09:48:03;0.55;;;0.55;;
6185;SDS011;3126;52.738;8.316;2023-07-20T09:53:05;1.52;;;0.70;;
6185;SDS011;3126;52.738;8.316;2023-07-20T09:58:06;1.25;;;0.80;;
6185;SDS011;3126;52.738;8.316;2023-07-20T10:03:12;1.27;;;0.90;;
6185;SDS011;3126;52.738;8.316;2023-07-20T10:08:15;1.55;;;0.80;;
6185;SDS011;3126;52.738;8.316;2023-07-20T10:13:20;0.85;;;0.82;;
6185;SDS011;3126;52.738;8.316;2023-07-20T10:18:27;1.67;;;0.80;;
6185;SDS011;3126;52.738;8.316;2023-07-20T10:23:29;3.08;;;0.88;;
6185;SDS011;3126;52.738;8.316;2023-07-20T10:28:31;4.65;;;1.10;;
6185;SDS011;3126;52.738;8.316;2023-07-20T10:33:32;1.65;;;0.80;;
6185;SDS011;3126;52.738;8.316;2023-07-20T10:43:42;2.50;;;1.60;;
6185;SDS011;3126;52.738;8.316;2023-07-20T10:49:03;8.27;;;3.08;;
6185;SDS011;3126;52.738;8.316;2023-07-20T11:04:39;4.05;;;2.22;;
6185;SDS011;3126;52.738;8.316;2023-07-20T11:09:41;4.03;;;1.70;;
6185;SDS011;3126;52.738;8.316;2023-07-20T11:14:43;4.00;;;1.70;;
6185;SDS011;3126;52.738;8.316;2023-07-20T11:19:44;2.35;;;1.40;;
6185;SDS011;3126;52.738;8.316;2023-07-20T11:24:48;1.58;;;1.40;;
6185;SDS011;3126;52.738;8.316;2023-07-20T11:29:49;1.67;;;1.42;;
6185;SDS011;3126;52.738;8.316;2023-07-20T11:34:50;1.65;;;1.50;;
6185;SDS011;3126;52.738;8.316;2023-07-20T11:39:55;3.22;;;1.80;;
6185;SDS011;3126;52.738;8.316;2023-07-20T11:44:56;2.42;;;1.52;;
6185;SDS011;3126;52.738;8.316;2023-07-20T11:50:03;1.73;;;1.60;;
6185;SDS011;3126;52.738;8.316;2023-07-20T11:55:04;1.00;;;1.00;;
6185;SDS011;3126;52.738;8.316;2023-07-20T12:00:06;3.60;;;1.42;;
6185;SDS011;3126;52.738;8.316;2023-07-20T12:05:11;3.05;;;1.30;;
6185;SDS011;3126;52.738;8.316;2023-07-20T12:10:12;3.08;;;1.35;;
6185;SDS011;3126;52.738;8.316;2023-07-20T12:20:24;1.38;;;1.27;;
6185;SDS011;3126;52.738;8.316;2023-07-20T12:25:46;2.03;;;1.35;;
6185;SDS011;3126;52.738;8.316;2023-07-20T12:30:48;2.30;;;1.65;;
6185;SDS011;3126;52.738;8.316;2023-07-20T12:35:56;5.80;;;1.42;;
6185;SDS011;3126;52.738;8.316;2023-07-20T12:41:00;2.05;;;1.48;;
6185;SDS011;3126;52.738;8.316;2023-07-20T12:46:02;2.95;;;1.40;;
6185;SDS011;3126;52.738;8.316;2023-07-20T12:51:05;2.25;;;1.08;;
6185;SDS011;3126;52.738;8.316;2023-07-20T12:56:06;1.73;;;1.40;;
6185;SDS011;3126;52.738;8.316;2023-07-20T13:01:07;1.75;;;1.17;;
6185;SDS011;3126;52.738;8.316;2023-07-20T13:06:08;3.45;;;1.75;;
6185;SDS011;3126;52.738;8.316;2023-07-20T13:11:09;2.40;;;1.60;;
6185;SDS011;3126;52.738;8.316;2023-07-20T13:16:13;2.88;;;1.40;;
6185;SDS011;3126;52.738;8.316;2023-07-20T13:21:15;2.88;;;1.52;;
6185;SDS011;3126;52.738;8.316;2023-07-20T13:26:16;2.50;;;1.63;;
6185;SDS011;3126;52.738;8.316;2023-07-20T13:31:17;1.50;;;1.40;;
6185;SDS011;3126;52.738;8.316;2023-07-20T13:36:18;2.95;;;1.27;;
6185;SDS011;3126;52.738;8.316;2023-07-20T13:41:20;3.42;;;1.40;;
6185;SDS011;3126;52.738;8.316;2023-07-20T13:46:22;4.60;;;1.70;;
6185;SDS011;3126;52.738;8.316;2023-07-20T13:51:23;1.63;;;1.20;;
6185;SDS011;3126;52.738;8.316;2023-07-20T13:56:24;2.45;;;1.30;;
6185;SDS011;3126;52.738;8.316;2023-07-20T14:01:25;2.28;;;1.20;;
6185;SDS011;3126;52.738;8.316;2023-07-20T14:06:29;1.73;;;1.10;;
6185;SDS011;3126;52.738;8.316;2023-07-20T14:11:30;3.83;;;1.83;;
6185;SDS011;3126;52.738;8.316;2023-07-20T14:16:31;1.80;;;1.70;;
6185;SDS011;3126;52.738;8.316;2023-07-20T14:21:32;2.20;;;1.73;;
6185;SDS011;3126;52.738;8.316;2023-07-20T14:26:34;2.15;;;1.50;;
6185;SDS011;3126;52.738;8.316;2023-07-20T14:31:35;4.13;;;1.77;;
6185;SDS011;3126;52.738;8.316;2023-07-20T14:36:36;2.58;;;1.52;;
6185;SDS011;3126;52.738;8.316;2023-07-20T14:41:37;3.70;;;1.58;;
6185;SDS011;3126;52.738;8.316;2023-07-20T14:46:38;3.75;;;1.90;;
6185;SDS011;3126;52.738;8.316;2023-07-20T14:51:39;4.68;;;1.83;;
6185;SDS011;3126;52.738;8.316;2023-07-20T14:56:49;6.10;;;1.95;;
6185;SDS011;3126;52.738;8.316;2023-07-20T15:01:53;5.82;;;2.35;;
6185;SDS011;3126;52.738;8.316;2023-07-20T15:06:54;3.10;;;2.10;;
6185;SDS011;3126;52.738;8.316;2023-07-20T15:11:56;13.30;;;3.17;;
6185;SDS011;3126;52.738;8.316;2023-07-20T15:16:57;4.80;;;1.80;;
6185;SDS011;3126;52.738;8.316;2023-07-20T15:21:58;2.92;;;1.70;;
6185;SDS011;3126;52.738;8.316;2023-07-20T15:26:59;3.95;;;1.85;;
6185;SDS011;3126;52.738;8.316;2023-07-20T15:32:01;3.20;;;1.70;;
6185;SDS011;3126;52.738;8.316;2023-07-20T15:37:03;4.15;;;1.48;;
6185;SDS011;3126;52.738;8.316;2023-07-20T15:42:05;2.08;;;1.60;;
6185;SDS011;3126;52.738;8.316;2023-07-20T15:47:06;1.35;;;1.20;;
6185;SDS011;3126;52.738;8.316;2023-07-20T15:52:07;2.13;;;1.30;;
6185;SDS011;3126;52.738;8.316;2023-07-20T15:57:08;2.30;;;1.50;;
6185;SDS011;3126;52.738;8.316;2023-07-20T16:02:09;4.10;;;1.35;;
6185;SDS011;3126;52.738;8.316;2023-07-20T16:07:10;2.97;;;1.25;;
6185;SDS011;3126;52.738;8.316;2023-07-20T16:12:12;2.60;;;1.60;;
6185;SDS011;3126;52.738;8.316;2023-07-20T16:17:13;3.30;;;1.42;;
6185;SDS011;3126;52.738;8.316;2023-07-20T16:22:14;2.15;;;1.52;;
6185;SDS011;3126;52.738;8.316;2023-07-20T16:27:15;2.22;;;1.55;;
6185;SDS011;3126;52.738;8.316;2023-07-20T16:32:16;1.27;;;1.00;;
6185;SDS011;3126;52.738;8.316;2023-07-20T16:37:17;2.35;;;1.10;;
6185;SDS011;3126;52.738;8.316;2023-07-20T16:42:18;3.03;;;1.30;;
6185;SDS011;3126;52.738;8.316;2023-07-20T16:47:19;3.97;;;1.45;;
6185;SDS011;3126;52.738;8.316;2023-07-20T16:52:21;1.52;;;1.42;;
6185;SDS011;3126;52.738;8.316;2023-07-20T16:57:22;2.20;;;1.52;;
6185;SDS011;3126;52.738;8.316;2023-07-20T17:02:23;1.50;;;1.40;;
6185;SDS011;3126;52.738;8.316;2023-07-20T17:07:24;1.60;;;1.00;;
6185;SDS011;3126;52.738;8.316;2023-07-20T17:12:26;2.80;;;1.17;;
6185;SDS011;3126;52.738;8.316;2023-07-20T17:17:28;1.27;;;1.17;;
6185;SDS011;3126;52.738;8.316;2023-07-20T17:22:29;1.40;;;0.90;;
6185;SDS011;3126;52.738;8.316;2023-07-20T17:27:30;1.30;;;1.13;;
6185;SDS011;3126;52.738;8.316;2023-07-20T17:32:31;1.55;;;1.23;;
6185;SDS011;3126;52.738;8.316;2023-07-20T17:37:32;2.70;;;1.45;;
6185;SDS011;3126;52.738;8.316;2023-07-20T17:42:33;2.13;;;1.13;;
6185;SDS011;3126;52.738;8.316;2023-07-20T17:47:36;3.25;;;1.38;;
6185;SDS011;3126;52.738;8.316;2023-07-20T17:52:38;1.10;;;1.00;;
6185;SDS011;3126;52.738;8.316;2023-07-20T17:57:39;1.48;;;1.15;;
6185;SDS011;3126;52.738;8.316;2023-07-20T18:02:40;4.53;;;1.23;;
6185;SDS011;3126;52.738;8.316;2023-07-20T18:07:41;0.88;;;0.82;;
6185;SDS011;3126;52.738;8.316;2023-07-20T18:12:42;3.90;;;1.02;;
6185;SDS011;3126;52.738;8.316;2023-07-20T18:17:43;6.82;;;1.70;;
6185;SDS011;3126;52.738;8.316;2023-07-20T18:22:45;2.47;;;1.20;;
6185;SDS011;3126;52.738;8.316;2023-07-20T18:27:46;1.30;;;1.20;;
6185;SDS011;3126;52.738;8.316;2023-07-20T18:32:48;2.40;;;1.67;;
6185;SDS011;3126;52.738;8.316;2023-07-20T18:37:49;2.35;;;1.40;;
6185;SDS011;3126;52.738;8.316;2023-07-20T18:42:50;1.17;;;1.08;;
6185;SDS011;3126;52.738;8.316;2023-07-20T18:47:51;4.50;;;1.35;;
6185;SDS011;3126;52.738;8.316;2023-07-20T18:52:54;1.85;;;1.38;;
6185;SDS011;3126;52.738;8.316;2023-07-20T18:57:56;2.80;;;1.55;;
6185;SDS011;3126;52.738;8.316;2023-07-20T19:02:58;4.28;;;1.40;;
6185;SDS011;3126;52.738;8.316;2023-07-20T19:08:00;2.00;;;1.00;;
6185;SDS011;3126;52.738;8.316;2023-07-20T19:13:04;3.03;;;1.60;;
6185;SDS011;3126;52.738;8.316;2023-07-20T19:18:06;4.40;;;1.85;;
6185;SDS011;3126;52.738;8.316;2023-07-20T19:23:07;2.80;;;1.60;;
6185;SDS011;3126;52.738;8.316;2023-07-20T19:28:08;2.08;;;1.88;;
6185;SDS011;3126;52.738;8.316;2023-07-20T19:33:09;3.63;;;1.90;;
6185;SDS011;3126;52.738;8.316;2023-07-20T19:38:10;3.55;;;2.63;;
6185;SDS011;3126;52.738;8.316;2023-07-20T19:43:11;2.78;;;1.70;;
6185;SDS011;3126;52.738;8.316;2023-07-20T19:48:15;3.45;;;1.63;;
6185;SDS011;3126;52.738;8.316;2023-07-20T19:53:22;2.95;;;1.45;;
6185;SDS011;3126;52.738;8.316;2023-07-20T19:58:23;2.15;;;1.98;;
6185;SDS011;3126;52.738;8.316;2023-07-20T20:03:24;2.38;;;1.88;;
6185;SDS011;3126;52.738;8.316;2023-07-20T20:08:26;1.73;;;1.63;;
6185;SDS011;3126;52.738;8.316;2023-07-20T20:13:29;2.85;;;2.00;;
6185;SDS011;3126;52.738;8.316;2023-07-20T20:18:31;2.47;;;1.90;;
6185;SDS011;3126;52.738;8.316;2023-07-20T20:23:34;2.03;;;1.80;;
6185;SDS011;3126;52.738;8.316;2023-07-20T20:28:37;3.90;;;2.58;;
6185;SDS011;3126;52.738;8.316;2023-07-20T20:33:38;4.20;;;2.35;;
6185;SDS011;3126;52.738;8.316;2023-07-20T20:38:41;3.28;;;2.72;;
6185;SDS011;3126;52.738;8.316;2023-07-20T20:43:42;3.67;;;2.85;;
6185;SDS011;3126;52.738;8.316;2023-07-20T20:48:43;6.07;;;2.63;;
6185;SDS011;3126;52.738;8.316;2023-07-20T20:53:45;5.53;;;2.70;;
6185;SDS011;3126;52.738;8.316;2023-07-20T20:58:46;4.43;;;2.45;;
6185;SDS011;3126;52.738;8.316;2023-07-20T21:03:48;6.50;;;2.85;;
6185;SDS011;3126;52.738;8.316;2023-07-20T21:08:49;3.35;;;2.20;;
6185;SDS011;3126;52.738;8.316;2023-07-20T21:13:51;3.47;;;2.03;;
6185;SDS011;3126;52.738;8.316;2023-07-20T21:18:52;2.20;;;1.98;;
6185;SDS011;3126;52.738;8.316;2023-07-20T21:23:53;3.55;;;2.08;;
6185;SDS011;3126;52.738;8.316;2023-07-20T21:28:54;2.75;;;2.17;;
6185;SDS011;3126;52.738;8.316;2023-07-20T21:33:55;3.67;;;2.55;;
6185;SDS011;3126;52.738;8.316;2023-07-20T21:38:56;4.28;;;2.60;;
6185;SDS011;3126;52.738;8.316;2023-07-20T21:43:57;3.50;;;2.38;;
6185;SDS011;3126;52.738;8.316;2023-07-20T21:48:58;3.47;;;2.25;;
6185;SDS011;3126;52.738;8.316;2023-07-20T21:54:00;3.47;;;2.63;;
6185;SDS011;3126;52.738;8.316;2023-07-20T21:59:01;2.35;;;2.20;;
6185;SDS011;3126;52.738;8.316;2023-07-20T22:04:02;3.15;;;2.17;;
6185;SDS011;3126;52.738;8.316;2023-07-20T22:09:02;2.83;;;2.50;;
6185;SDS011;3126;52.738;8.316;2023-07-20T22:14:04;6.53;;;2.50;;
6185;SDS011;3126;52.738;8.316;2023-07-20T22:19:05;2.92;;;2.63;;
6185;SDS011;3126;52.738;8.316;2023-07-20T22:24:07;4.43;;;2.25;;
6185;SDS011;3126;52.738;8.316;2023-07-20T22:29:09;3.33;;;2.15;;
6185;SDS011;3126;52.738;8.316;2023-07-20T22:34:10;4.25;;;2.38;;
6185;SDS011;3126;52.738;8.316;2023-07-20T22:39:11;5.53;;;2.90;;
6185;SDS011;3126;52.738;8.316;2023-07-20T22:44:13;5.88;;;2.92;;
6185;SDS011;3126;52.738;8.316;2023-07-20T22:49:15;3.65;;;3.30;;
6185;SDS011;3126;52.738;8.316;2023-07-20T22:54:17;4.50;;;2.55;;
6185;SDS011;3126;52.738;8.316;2023-07-20T22:59:19;4.38;;;2.42;;
6185;SDS011;3126;52.738;8.316;2023-07-20T23:04:21;3.08;;;2.38;;
6185;SDS011;3126;52.738;8.316;2023-07-20T23:09:22;4.15;;;2.83;;
6185;SDS011;3126;52.738;8.316;2023-07-20T23:14:24;4.38;;;3.35;;
6185;SDS011;3126;52.738;8.316;2023-07-20T23:19:27;3.42;;;2.85;;
6185;SDS011;3126;52.738;8.316;2023-07-20T23:24:30;4.50;;;2.92;;
6185;SDS011;3126;52.738;8.316;2023-07-20T23:29:31;4.40;;;2.95;;
6185;SDS011;3126;52.738;8.316;2023-07-20T23:34:32;4.55;;;2.85;;
6185;SDS011;3126;52.738;8.316;2023-07-20T23:39:34;6.00;;;3.08;;
6185;SDS011;3126;52.738;8.316;2023-07-20T23:44:35;4.28;;;2.70;;
6185;SDS011;3126;52.738;8.316;2023-07-20T23:49:36;4.88;;;3.38;;
6185;SDS011;3126;52.738;8.316;2023-07-20T23:54:38;3.92;;;3.22;;
6185;SDS011;3126;52.738;8.316;2023-07-20T23:59:39;4.40;;;3.28;;
